createdAt,value
2023-03-17T00:01:17.322Z,57.25
2023-03-17T00:03:46.566Z,57.35
2023-03-17T00:06:17.064Z,56.74
2023-03-17T00:08:46.281Z,57.58
2023-03-17T00:11:16.016Z,56.97
2023-03-17T00:13:44.585Z,57.29
2023-03-17T00:16:18.051Z,57.75
2023-03-17T00:18:45.830Z,57.07
2023-03-17T00:21:15.572Z,57.27
2023-03-17T00:23:46.960Z,58.29
2023-03-17T00:26:15.282Z,58.01
2023-03-17T00:28:43.270Z,58.80
2023-03-17T00:31:15.165Z,59.01
2023-03-17T00:33:45.485Z,58.08
2023-03-17T00:36:17.973Z,58.94
2023-03-17T00:38:46.181Z,59.04
2023-03-17T00:41:14.152Z,58.93
2023-03-17T00:43:42.841Z,59.64
2023-03-17T00:46:14.714Z,59.36
2023-03-17T00:48:44.774Z,59.15
2023-03-17T00:51:12.503Z,59.35
2023-03-17T00:53:40.517Z,59.14
2023-03-17T00:56:14.374Z,59.14
2023-03-17T00:58:42.200Z,59.43
2023-03-17T01:01:10.732Z,59.00
2023-03-17T01:03:38.977Z,59.51
2023-03-17T01:06:11.189Z,59.32
2023-03-17T01:08:39.669Z,59.38
2023-03-17T01:11:08.591Z,59.34
2023-03-17T01:13:36.639Z,60.17
2023-03-17T01:16:04.379Z,59.06
2023-03-17T01:18:32.780Z,59.50
2023-03-17T01:21:00.366Z,58.76
2023-03-17T01:23:29.323Z,58.89
2023-03-17T01:25:57.346Z,59.02
2023-03-17T01:28:25.403Z,59.28
2023-03-17T01:30:52.925Z,58.77
2023-03-17T01:33:20.678Z,58.96
2023-03-17T01:35:48.277Z,59.86
2023-03-17T01:38:16.363Z,60.13
2023-03-17T01:40:47.983Z,59.52
2023-03-17T01:43:20.837Z,61.24
2023-03-17T01:46:16.032Z,59.91
2023-03-17T01:48:46.540Z,59.01
2023-03-17T01:51:18.894Z,60.22
2023-03-17T01:53:48.867Z,60.53
2023-03-17T01:56:18.062Z,61.27
2023-03-17T01:58:48.251Z,60.54
2023-03-17T02:01:15.848Z,60.72
2023-03-17T02:03:43.814Z,60.88
2023-03-17T02:06:12.200Z,60.60
2023-03-17T02:08:39.716Z,60.83
2023-03-17T02:11:08.660Z,60.76
2023-03-17T02:13:38.476Z,60.32
2023-03-17T02:16:07.018Z,59.85
2023-03-17T02:18:34.925Z,60.08
2023-03-17T02:21:38.148Z,61.07
2023-03-17T02:24:10.838Z,59.92
2023-03-17T02:26:39.022Z,59.64
2023-03-17T02:29:06.753Z,60.39
2023-03-17T02:31:34.891Z,59.99
2023-03-17T02:34:02.801Z,60.89
2023-03-17T02:36:30.623Z,60.27
2023-03-17T02:38:59.510Z,60.14
2023-03-17T02:41:27.329Z,60.48
2023-03-17T02:43:54.939Z,60.41
2023-03-17T02:46:22.607Z,60.70
2023-03-17T02:48:50.900Z,60.34
2023-03-17T02:51:18.424Z,60.96
2023-03-17T02:53:46.001Z,60.31
2023-03-17T02:56:15.052Z,60.52
2023-03-17T02:58:42.601Z,61.08
2023-03-17T03:01:10.709Z,60.68
2023-03-17T03:03:38.517Z,60.83
2023-03-17T03:06:06.789Z,61.23
2023-03-17T03:08:34.519Z,60.94
2023-03-17T03:11:02.590Z,61.33
2023-03-17T03:13:31.616Z,60.70
2023-03-17T03:15:59.174Z,61.01
2023-03-17T03:18:27.075Z,62.01
2023-03-17T03:20:54.786Z,61.56
2023-03-17T03:23:22.351Z,60.95
2023-03-17T03:25:49.986Z,60.98
2023-03-17T03:28:17.618Z,60.98
2023-03-17T03:30:46.884Z,61.16
2023-03-17T03:33:18.764Z,61.03
2023-03-17T03:35:46.483Z,60.96
2023-03-17T03:38:14.333Z,62.35
2023-03-17T03:40:42.300Z,61.78
2023-03-17T03:43:22.079Z,61.67
2023-03-17T03:45:54.470Z,61.59
2023-03-17T03:48:23.011Z,63.01
2023-03-17T03:50:50.546Z,63.07
2023-03-17T03:53:18.040Z,62.84
2023-03-17T03:55:45.692Z,62.82
2023-03-17T03:58:13.278Z,62.83
2023-03-17T04:00:40.891Z,63.10
2023-03-17T04:03:09.819Z,63.39
2023-03-17T04:05:37.399Z,63.17
2023-03-17T04:08:05.179Z,63.43
2023-03-17T04:10:32.928Z,63.42
2023-03-17T04:13:00.697Z,63.04
2023-03-17T04:15:28.436Z,63.80
2023-03-17T04:17:56.068Z,63.61
2023-03-17T04:20:24.991Z,62.98
2023-03-17T04:22:52.546Z,63.16
2023-03-17T04:25:20.400Z,62.90
2023-03-17T04:27:47.959Z,63.09
2023-03-17T04:30:16.896Z,62.36
2023-03-17T04:32:46.333Z,63.60
2023-03-17T04:35:15.938Z,63.87
2023-03-17T04:37:45.534Z,63.11
2023-03-17T04:40:14.429Z,64.07
2023-03-17T04:42:42.197Z,63.69
2023-03-17T04:45:12.440Z,64.29
2023-03-17T04:47:39.971Z,64.02
2023-03-17T04:50:08.900Z,63.79
2023-03-17T04:52:37.037Z,64.56
2023-03-17T04:55:08.251Z,63.73
2023-03-17T04:57:36.065Z,64.01
2023-03-17T05:00:04.548Z,63.36
2023-03-17T05:02:32.205Z,63.90
2023-03-17T05:04:59.900Z,63.80
2023-03-17T05:07:27.406Z,63.77
2023-03-17T05:09:54.931Z,63.79
2023-03-17T05:12:23.858Z,63.73
2023-03-17T05:14:51.442Z,63.50
2023-03-17T05:17:18.970Z,63.97
2023-03-17T05:19:46.894Z,63.68
2023-03-17T05:22:14.442Z,63.54
2023-03-17T05:24:42.078Z,63.48
2023-03-17T05:27:09.880Z,63.83
2023-03-17T05:29:39.278Z,64.28
2023-03-17T05:32:07.542Z,63.85
2023-03-17T05:34:35.056Z,64.32
2023-03-17T05:37:03.344Z,64.23
2023-03-17T05:39:30.880Z,64.04
2023-03-17T05:41:58.508Z,63.97
2023-03-17T05:44:26.197Z,64.34
2023-03-17T05:46:55.900Z,64.34
2023-03-17T05:49:24.463Z,64.34
2023-03-17T05:51:52.001Z,64.35
2023-03-17T05:54:19.592Z,64.54
2023-03-17T05:56:47.108Z,64.18
2023-03-17T05:59:16.783Z,64.46
2023-03-17T06:01:44.345Z,64.54
2023-03-17T06:04:13.379Z,64.52
2023-03-17T06:06:41.253Z,64.69
2023-03-17T06:09:09.384Z,64.89
2023-03-17T06:11:36.897Z,64.77
2023-03-17T06:14:04.577Z,64.62
2023-03-17T06:16:33.179Z,65.16
2023-03-17T06:19:01.223Z,65.24
2023-03-17T06:21:30.313Z,64.82
2023-03-17T06:23:57.928Z,64.58
2023-03-17T06:26:25.438Z,64.27
2023-03-17T06:28:52.985Z,64.54
2023-03-17T06:31:20.792Z,64.30
2023-03-17T06:33:48.671Z,64.43
2023-03-17T06:36:16.896Z,64.60
2023-03-17T06:38:46.050Z,64.42
2023-03-17T06:41:13.720Z,64.38
2023-03-17T06:43:41.247Z,64.16
2023-03-17T06:46:08.876Z,64.42
2023-03-17T06:48:36.450Z,64.19
2023-03-17T06:51:04.134Z,63.64
2023-03-17T06:53:31.662Z,63.83
2023-03-17T06:56:00.605Z,63.32
2023-03-17T06:58:28.156Z,63.68
2023-03-17T07:40:30.876Z,58.72
2023-03-17T07:42:59.505Z,57.59
2023-03-17T07:45:27.815Z,57.04
2023-03-17T07:47:55.634Z,56.39
2023-03-17T07:50:23.216Z,54.78
2023-03-17T07:52:50.848Z,51.82
2023-03-17T07:55:18.445Z,48.34
2023-03-17T07:57:47.339Z,45.75
2023-03-17T08:00:17.224Z,44.59
2023-03-17T08:02:46.882Z,43.42
2023-03-17T08:05:15.755Z,41.80
2023-03-17T08:07:43.362Z,41.06
2023-03-17T08:10:13.259Z,41.06
2023-03-17T08:12:41.686Z,40.82
2023-03-17T08:15:12.178Z,40.76
2023-03-17T08:17:40.117Z,41.73
2023-03-17T08:20:09.672Z,42.10
2023-03-17T08:22:37.281Z,42.84
2023-03-17T08:25:05.163Z,42.87
2023-03-17T08:27:33.969Z,42.83
2023-03-17T08:30:02.158Z,42.95
2023-03-17T08:32:31.136Z,42.47
2023-03-17T08:34:58.744Z,42.20
2023-03-17T08:37:26.664Z,42.06
2023-03-17T08:39:54.319Z,42.21
2023-03-17T08:42:22.330Z,42.49
2023-03-17T08:44:49.948Z,42.77
2023-03-17T08:47:17.557Z,42.75
2023-03-17T08:49:46.475Z,42.56
2023-03-17T08:52:14.829Z,41.90
2023-03-17T08:54:42.406Z,40.43
2023-03-17T08:57:09.985Z,38.95
2023-03-17T08:59:37.736Z,38.09
2023-03-17T09:02:05.707Z,35.59
2023-03-17T09:04:33.943Z,34.83
2023-03-17T09:07:04.339Z,33.00
2023-03-17T09:09:32.263Z,33.06
2023-03-17T09:11:59.977Z,32.66
2023-03-17T09:14:27.671Z,32.32
2023-03-17T09:16:55.435Z,32.40
2023-03-17T09:19:23.798Z,32.81
2023-03-17T09:21:51.849Z,32.60
2023-03-17T09:24:21.680Z,33.38
2023-03-17T09:26:49.267Z,33.73
2023-03-17T09:29:16.865Z,33.50
2023-03-17T09:31:44.432Z,34.86
2023-03-17T09:34:12.133Z,35.84
2023-03-17T09:36:39.896Z,35.86
2023-03-17T09:39:07.445Z,35.07
2023-03-17T09:41:57.071Z,33.48
2023-03-17T09:44:38.571Z,34.83
2023-03-17T09:47:23.939Z,32.37
2023-03-17T09:49:54.473Z,32.84
2023-03-17T09:52:27.888Z,31.70
2023-03-17T09:54:56.000Z,33.67
2023-03-17T09:57:28.062Z,32.00
2023-03-17T10:00:06.351Z,32.67
2023-03-17T10:02:37.466Z,31.37
2023-03-17T10:05:14.875Z,30.70
2023-03-17T10:07:49.515Z,31.46
2023-03-17T10:10:25.190Z,29.88
2023-03-17T10:13:06.748Z,29.32
2023-03-17T10:15:38.803Z,30.84
2023-03-17T10:18:11.334Z,28.80
2023-03-17T10:20:49.248Z,28.21
2023-03-17T10:23:21.682Z,28.31
2023-03-17T10:25:49.377Z,27.98
2023-03-17T10:28:29.709Z,27.01
2023-03-17T10:31:03.035Z,27.43
2023-03-17T10:33:32.725Z,27.09
2023-03-17T10:36:09.490Z,25.87
2023-03-17T10:38:37.612Z,27.12
2023-03-17T10:41:10.261Z,27.12
2023-03-17T10:43:44.880Z,25.33
2023-03-17T10:46:21.538Z,23.80
2023-03-17T10:48:54.178Z,24.10
2023-03-17T10:51:30.609Z,24.46
2023-03-17T10:54:01.295Z,24.27
2023-03-17T10:56:34.769Z,23.27
2023-03-17T10:59:08.897Z,23.50
2023-03-17T11:01:40.138Z,23.31
2023-03-17T11:04:27.336Z,24.19
2023-03-17T11:06:57.365Z,23.02
2023-03-17T11:09:26.242Z,24.41
2023-03-17T11:12:02.945Z,24.48
2023-03-17T11:14:32.028Z,23.22
2023-03-17T11:17:02.587Z,22.93
2023-03-17T11:19:42.017Z,22.03
2023-03-17T11:22:14.994Z,21.65
2023-03-17T11:24:55.469Z,21.71
2023-03-17T11:27:30.968Z,22.74
2023-03-17T11:30:15.176Z,22.20
2023-03-17T11:32:46.772Z,22.29
2023-03-17T11:35:34.172Z,22.59
2023-03-17T11:38:15.830Z,20.17
2023-03-17T11:40:57.886Z,21.13
2023-03-17T11:43:34.328Z,21.08
2023-03-17T11:46:10.678Z,21.21
2023-03-17T11:48:49.609Z,20.10
2023-03-17T11:51:27.586Z,19.92
2023-03-17T11:54:09.497Z,20.34
2023-03-17T11:56:42.804Z,20.33
2023-03-17T11:59:21.596Z,20.08
2023-03-17T12:01:59.570Z,21.41
2023-03-17T12:04:34.343Z,21.19
2023-03-17T12:07:09.050Z,20.71
2023-03-17T12:09:40.879Z,19.86
2023-03-17T12:12:11.858Z,20.29
2023-03-17T12:14:44.191Z,20.71
2023-03-17T12:17:19.656Z,20.32
2023-03-17T12:20:06.779Z,23.23
2023-03-17T12:22:40.772Z,20.46
2023-03-17T12:25:17.981Z,20.64
2023-03-17T12:27:51.825Z,20.75
2023-03-17T12:30:29.144Z,21.42
2023-03-17T12:33:04.675Z,22.38
2023-03-17T12:35:34.960Z,22.77
2023-03-17T12:38:10.565Z,22.73
2023-03-17T12:40:51.302Z,23.53
2023-03-17T12:43:37.617Z,23.74
2023-03-17T12:46:18.679Z,23.52
2023-03-17T12:49:14.907Z,23.99
2023-03-17T12:52:15.410Z,23.56
2023-03-17T12:54:47.826Z,24.35
2023-03-17T12:57:19.019Z,24.36
2023-03-17T12:59:50.258Z,24.64
2023-03-17T13:02:31.986Z,24.88
2023-03-17T13:05:02.014Z,23.58
2023-03-17T13:07:35.900Z,23.59
2023-03-17T13:10:36.249Z,24.56
2023-03-17T13:13:23.227Z,23.62
2023-03-17T13:16:01.188Z,23.69
2023-03-17T13:18:47.855Z,25.63
2023-03-17T13:21:20.490Z,26.01
2023-03-17T13:23:54.275Z,25.04
2023-03-17T13:26:44.628Z,25.74
2023-03-17T13:29:27.160Z,27.88
2023-03-17T13:32:14.460Z,26.16
2023-03-17T13:34:46.536Z,24.88
2023-03-17T13:37:23.770Z,25.21
2023-03-17T13:40:11.029Z,25.96
2023-03-17T13:43:05.126Z,26.79
2023-03-17T13:45:38.558Z,26.55
2023-03-17T13:48:28.701Z,25.81
2023-03-17T13:51:00.876Z,25.00
2023-03-17T13:53:31.694Z,27.01
2023-03-17T13:56:12.102Z,25.29
2023-03-17T13:58:53.900Z,26.80
2023-03-17T14:01:24.174Z,26.11
2023-03-17T14:03:54.060Z,26.37
2023-03-17T14:06:26.792Z,26.17
2023-03-17T14:08:58.280Z,25.32
2023-03-17T14:11:29.754Z,25.49
2023-03-17T14:14:31.225Z,25.98
2023-03-17T14:17:08.147Z,25.97
2023-03-17T14:19:39.016Z,26.28
2023-03-17T14:22:20.833Z,28.28
2023-03-17T14:24:53.035Z,27.49
2023-03-17T14:27:22.348Z,28.37
2023-03-17T14:29:49.920Z,26.97
2023-03-17T14:32:21.496Z,26.35
2023-03-17T14:34:55.565Z,27.09
2023-03-17T14:37:24.035Z,26.69
2023-03-17T14:39:54.712Z,27.24
2023-03-17T14:42:28.570Z,28.58
2023-03-17T14:45:03.739Z,29.21
2023-03-17T14:47:39.656Z,27.89
2023-03-17T14:50:16.948Z,26.54
2023-03-17T14:52:45.403Z,28.49
2023-03-17T14:55:14.689Z,29.25
2023-03-17T14:57:42.723Z,29.20
2023-03-17T15:00:31.797Z,27.99
2023-03-17T15:03:03.374Z,27.69
2023-03-17T15:05:41.036Z,27.92
2023-03-17T15:08:42.625Z,27.96
2023-03-17T15:11:18.482Z,28.90
2023-03-17T15:13:46.171Z,29.97
2023-03-17T15:16:21.412Z,29.59
2023-03-17T15:18:56.160Z,29.12
2023-03-17T15:21:28.178Z,28.59
2023-03-17T15:23:55.720Z,29.73
2023-03-17T15:26:31.012Z,29.43
2023-03-17T15:29:00.411Z,30.20
2023-03-17T15:31:30.093Z,30.70
2023-03-17T15:33:59.793Z,31.42
2023-03-17T15:36:32.648Z,31.87
2023-03-17T15:39:01.077Z,31.75
2023-03-17T15:41:28.698Z,33.42
2023-03-17T15:43:56.761Z,32.98
2023-03-17T15:46:27.616Z,33.38
2023-03-17T15:48:55.353Z,34.36
2023-03-17T15:51:24.186Z,32.89
2023-03-17T15:53:51.801Z,32.91
2023-03-17T15:56:21.751Z,34.24
2023-03-17T15:58:52.168Z,33.63
2023-03-17T16:01:20.631Z,34.33
2023-03-17T16:03:49.464Z,33.80
2023-03-17T16:06:18.764Z,33.65
2023-03-17T16:08:47.672Z,33.66
2023-03-17T16:11:19.041Z,34.13
2023-03-17T16:13:47.868Z,33.88
2023-03-17T16:16:22.625Z,35.06
2023-03-17T16:18:52.568Z,34.62
2023-03-17T16:21:20.736Z,35.08
2023-03-17T16:23:50.289Z,35.25
2023-03-17T16:26:17.961Z,35.39
2023-03-17T16:28:47.625Z,36.98
2023-03-17T16:31:24.998Z,36.02
2023-03-17T16:33:55.509Z,37.37
2023-03-17T16:36:25.687Z,36.78
2023-03-17T16:38:54.842Z,37.74
2023-03-17T16:41:24.283Z,38.15
2023-03-17T16:43:55.277Z,37.74
2023-03-17T16:46:23.484Z,38.46
2023-03-17T16:48:51.930Z,38.32
2023-03-17T16:51:20.117Z,38.30
2023-03-17T16:53:48.130Z,38.67
2023-03-17T16:56:19.795Z,42.06
2023-03-17T16:58:47.909Z,40.75
2023-03-17T17:01:17.789Z,40.27
2023-03-17T17:03:46.030Z,41.00
2023-03-17T17:06:15.327Z,41.20
2023-03-17T17:08:43.968Z,41.11
2023-03-17T17:11:13.440Z,41.85
2023-03-17T17:13:43.427Z,42.62
2023-03-17T17:16:20.037Z,42.33
2023-03-17T17:18:47.683Z,42.60
2023-03-17T17:21:15.231Z,42.32
2023-03-17T17:23:42.900Z,43.55
2023-03-17T17:26:10.770Z,42.79
2023-03-17T17:28:39.972Z,43.72
2023-03-17T17:31:09.838Z,43.42
2023-03-17T17:33:38.491Z,43.67
2023-03-17T17:36:12.403Z,43.87
2023-03-17T17:38:40.048Z,43.94
2023-03-17T17:41:08.923Z,43.96
2023-03-17T17:43:36.715Z,44.26
2023-03-17T17:46:04.437Z,44.87
2023-03-17T17:48:33.269Z,44.91
2023-03-17T17:51:00.936Z,45.13
2023-03-17T17:53:28.477Z,45.36
2023-03-17T17:55:57.599Z,45.17
2023-03-17T17:58:26.906Z,45.47
2023-03-17T18:00:56.846Z,45.69
2023-03-17T18:03:25.315Z,45.75
2023-03-17T18:05:55.184Z,46.06
2023-03-17T18:08:23.639Z,45.96
2023-03-17T18:10:52.225Z,46.25
2023-03-17T18:13:19.990Z,46.56
2023-03-17T18:15:47.795Z,46.30
2023-03-17T18:18:15.469Z,46.72
2023-03-17T18:20:43.070Z,46.97
2023-03-17T18:23:12.165Z,47.03
2023-03-17T18:25:39.783Z,47.15
2023-03-17T18:28:08.017Z,47.44
2023-03-17T18:30:35.848Z,47.42
2023-03-17T18:33:07.423Z,47.66
2023-03-17T18:35:35.548Z,47.61
2023-03-17T18:38:03.251Z,47.76
2023-03-17T18:40:32.404Z,48.27
2023-03-17T18:43:00.008Z,48.29
2023-03-17T18:45:27.651Z,48.43
2023-03-17T18:47:55.189Z,48.63
2023-03-17T18:50:23.393Z,48.70
2023-03-17T18:52:51.218Z,48.86
2023-03-17T18:55:19.099Z,48.96
2023-03-17T18:57:48.284Z,49.14
2023-03-17T19:00:18.536Z,49.32
2023-03-17T19:02:46.876Z,49.52
2023-03-17T19:05:15.249Z,50.33
2023-03-17T19:07:43.068Z,49.97
2023-03-17T19:10:12.025Z,49.73
2023-03-17T19:12:39.745Z,49.93
2023-03-17T19:15:10.623Z,49.77
2023-03-17T19:17:38.490Z,51.72
2023-03-17T19:20:07.205Z,50.51
2023-03-17T19:22:35.280Z,50.41
2023-03-17T19:25:04.350Z,50.07
2023-03-17T19:27:32.060Z,50.20
2023-03-17T19:29:59.633Z,50.31
2023-03-17T19:32:28.570Z,50.26
2023-03-17T19:34:56.147Z,50.06
2023-03-17T19:37:23.706Z,49.93
2023-03-17T19:39:51.196Z,50.27
2023-03-17T19:42:18.961Z,50.13
2023-03-17T19:44:46.479Z,50.38
2023-03-17T19:47:13.979Z,50.48
2023-03-17T19:49:42.879Z,50.91
2023-03-17T19:52:10.995Z,50.85
2023-03-17T19:54:43.522Z,50.94
2023-03-17T20:05:12.671Z,51.05
2023-03-17T20:07:44.116Z,50.95
2023-03-17T20:10:13.422Z,51.38
2023-03-17T20:12:42.588Z,51.61
2023-03-17T20:15:12.565Z,51.43
2023-03-17T20:17:41.194Z,51.57
2023-03-17T20:20:12.210Z,51.73
2023-03-17T20:22:41.414Z,51.73
2023-03-17T20:25:10.449Z,52.05
2023-03-17T20:27:38.693Z,52.25
2023-03-17T20:30:08.797Z,52.35
2023-03-17T20:32:36.740Z,52.08
2023-03-17T20:35:06.842Z,52.61
2023-03-17T20:37:37.535Z,52.77
2023-03-17T20:40:08.578Z,53.58
2023-03-17T20:42:37.478Z,53.17
2023-03-17T20:45:07.547Z,53.37
2023-03-17T20:47:35.731Z,53.18
2023-03-17T20:50:04.734Z,53.13
2023-03-17T20:52:32.794Z,53.00
2023-03-17T20:55:02.570Z,53.34
2023-03-17T20:57:30.582Z,53.30
2023-03-17T20:59:58.280Z,53.61
2023-03-17T21:02:26.656Z,53.59
2023-03-17T21:04:54.469Z,53.66
2023-03-17T21:07:23.434Z,53.89
2023-03-17T21:09:52.072Z,53.86
2023-03-17T21:12:21.519Z,54.28
2023-03-17T21:14:49.334Z,54.17
2023-03-17T21:17:18.102Z,54.54
2023-03-17T21:19:46.401Z,54.49
2023-03-17T21:22:14.122Z,54.75
2023-03-17T21:24:42.215Z,54.90
2023-03-17T21:27:12.043Z,54.83
2023-03-17T21:29:41.383Z,54.90
2023-03-17T21:32:09.473Z,54.84
2023-03-17T21:34:38.113Z,54.95
2023-03-17T21:37:06.511Z,55.30
2023-03-17T21:39:34.197Z,55.23
2023-03-17T21:42:02.176Z,55.30
2023-03-17T21:44:29.984Z,55.50
2023-03-17T21:47:02.569Z,56.12
2023-03-17T21:49:30.431Z,55.77
2023-03-17T21:51:58.373Z,56.00
2023-03-17T21:54:26.575Z,56.20
2023-03-17T21:56:54.209Z,56.30
2023-03-17T21:59:21.876Z,56.44
2023-03-17T22:01:52.148Z,56.48
2023-03-17T22:04:21.604Z,56.61
2023-03-17T22:06:49.554Z,56.67
2023-03-17T22:09:19.218Z,56.66
2023-03-17T22:11:47.055Z,56.52
2023-03-17T22:14:20.033Z,56.79
2023-03-17T22:16:48.706Z,58.02
2023-03-17T22:19:20.606Z,57.43
2023-03-17T22:21:51.924Z,57.73
2023-03-17T22:24:19.882Z,57.58
2023-03-17T22:26:47.769Z,57.75
2023-03-17T22:29:16.218Z,57.64
2023-03-17T22:31:44.170Z,57.56
2023-03-17T22:34:11.988Z,57.92
2023-03-17T22:36:39.742Z,57.99
2023-03-17T22:39:10.603Z,58.28
2023-03-17T22:41:38.789Z,58.40
2023-03-17T22:44:09.217Z,58.94
2023-03-17T22:46:37.156Z,59.10
2023-03-17T22:49:05.131Z,58.83
2023-03-17T22:51:32.752Z,58.86
2023-03-17T22:54:00.682Z,58.46
2023-03-17T22:56:30.237Z,58.62
2023-03-17T22:58:57.872Z,58.54
2023-03-17T23:01:25.968Z,58.67
2023-03-17T23:03:54.920Z,58.91
2023-03-17T23:06:23.137Z,58.84
2023-03-17T23:08:50.988Z,59.09
2023-03-17T23:11:22.213Z,59.37
2023-03-17T23:13:52.837Z,59.50
2023-03-17T23:16:22.171Z,59.45
2023-03-17T23:18:50.809Z,60.46
2023-03-17T23:21:23.604Z,59.95
2023-03-17T23:23:51.746Z,59.70
2023-03-17T23:26:19.541Z,59.79
2023-03-17T23:28:47.734Z,60.29
2023-03-17T23:31:19.376Z,60.52
2023-03-17T23:33:47.694Z,60.14
2023-03-17T23:36:16.290Z,60.29
2023-03-17T23:38:45.544Z,60.42
2023-03-17T23:41:14.589Z,60.61
2023-03-17T23:43:44.084Z,60.84
2023-03-17T23:46:13.043Z,60.83
2023-03-17T23:48:43.075Z,60.74
2023-03-17T23:51:12.345Z,60.51
2023-03-17T23:53:40.643Z,60.81
2023-03-17T23:56:09.375Z,60.72
2023-03-17T23:58:37.430Z,60.68
